sensor_id;sensor_type;location;lat;lon;timestamp;pressure;altitude;pressure_sealevel;temperature;humidity
13124;BME280;6627;50.920;12.050;2023-03-25T00:01:33;97754.88;;;17.85;50.37
13124;BME280;6627;50.920;12.050;2023-03-25T00:04:01;97804.38;;;18.33;49.54
13124;BME280;6627;50.920;12.050;2023-03-25T00:06:30;97610.50;;;16.88;50.56
13124;BME280;6627;50.920;12.050;2023-03-25T00:09:00;97796.13;;;18.00;50.46
13124;BME280;6627;50.920;12.050;2023-03-25T00:11:28;97678.44;;;16.86;51.84
13124;BME280;6627;50.920;12.050;2023-03-25T00:13:57;97682.97;;;16.75;52.54
13124;BME280;6627;50.920;12.050;2023-03-25T00:16:24;97692.06;;;16.60;53.90
13124;BME280;6627;50.920;12.050;2023-03-25T00:18:52;97749.53;;;17.39;51.61
13124;BME280;6627;50.920;12.050;2023-03-25T00:21:20;97699.50;;;16.82;52.85
13124;BME280;6627;50.920;12.050;2023-03-25T00:23:48;97776.28;;;17.50;51.92
13124;BME280;6627;50.920;12.050;2023-03-25T00:26:15;97781.44;;;17.81;50.78
13124;BME280;6627;50.920;12.050;2023-03-25T00:28:42;97713.13;;;17.05;51.67
13124;BME280;6627;50.920;12.050;2023-03-25T00:31:13;97808.09;;;17.84;51.48
13124;BME280;6627;50.920;12.050;2023-03-25T00:33:41;97647.31;;;16.45;52.50
13124;BME280;6627;50.920;12.050;2023-03-25T00:36:10;97675.25;;;16.58;52.66
13124;BME280;6627;50.920;12.050;2023-03-25T00:38:38;97738.00;;;17.23;52.11
13124;BME280;6627;50.920;12.050;2023-03-25T00:41:09;97676.56;;;16.68;52.51
13124;BME280;6627;50.920;12.050;2023-03-25T00:43:37;97702.69;;;16.88;52.57
13124;BME280;6627;50.920;12.050;2023-03-25T00:46:04;97682.81;;;16.68;53.02
13124;BME280;6627;50.920;12.050;2023-03-25T00:48:34;97662.69;;;16.30;53.82
13124;BME280;6627;50.920;12.050;2023-03-25T00:51:01;97721.59;;;16.97;52.58
13124;BME280;6627;50.920;12.050;2023-03-25T00:53:36;97665.41;;;16.53;52.66
13124;BME280;6627;50.920;12.050;2023-03-25T00:56:04;97688.44;;;16.75;52.56
13124;BME280;6627;50.920;12.050;2023-03-25T00:58:32;97837.41;;;18.14;51.23
13124;BME280;6627;50.920;12.050;2023-03-25T01:01:00;97758.03;;;17.31;52.16
13124;BME280;6627;50.920;12.050;2023-03-25T01:03:28;97716.31;;;17.11;51.79
13124;BME280;6627;50.920;12.050;2023-03-25T01:05:56;97802.84;;;18.02;50.39
13124;BME280;6627;50.920;12.050;2023-03-25T01:08:24;97739.66;;;17.58;50.55
13124;BME280;6627;50.920;12.050;2023-03-25T01:10:55;97768.13;;;17.80;50.46
13124;BME280;6627;50.920;12.050;2023-03-25T01:13:22;97840.34;;;18.65;49.02
13124;BME280;6627;50.920;12.050;2023-03-25T01:15:49;97737.28;;;18.20;49.12
13124;BME280;6627;50.920;12.050;2023-03-25T01:18:17;97725.97;;;17.92;50.24
13124;BME280;6627;50.920;12.050;2023-03-25T01:20:44;97678.53;;;17.50;50.81
13124;BME280;6627;50.920;12.050;2023-03-25T01:23:13;97684.50;;;17.29;52.12
13124;BME280;6627;50.920;12.050;2023-03-25T01:25:41;97651.78;;;17.36;50.98
13124;BME280;6627;50.920;12.050;2023-03-25T01:28:09;97771.59;;;17.77;52.06
13124;BME280;6627;50.920;12.050;2023-03-25T01:30:36;97789.25;;;18.50;49.98
13124;BME280;6627;50.920;12.050;2023-03-25T01:33:04;97756.69;;;18.08;50.58
13124;BME280;6627;50.920;12.050;2023-03-25T01:35:31;97735.00;;;17.62;51.45
13124;BME280;6627;50.920;12.050;2023-03-25T01:37:58;97846.28;;;19.12;48.96
13124;BME280;6627;50.920;12.050;2023-03-25T01:40:27;97654.28;;;17.49;50.31
13124;BME280;6627;50.920;12.050;2023-03-25T01:42:54;97823.25;;;18.79;50.04
13124;BME280;6627;50.920;12.050;2023-03-25T01:45:26;97804.06;;;18.42;51.02
13124;BME280;6627;50.920;12.050;2023-03-25T01:48:02;97826.25;;;18.67;50.59
13124;BME280;6627;50.920;12.050;2023-03-25T01:50:32;97863.72;;;19.30;49.36
13124;BME280;6627;50.920;12.050;2023-03-25T01:53:03;97746.56;;;18.12;50.87
13124;BME280;6627;50.920;12.050;2023-03-25T01:55:34;97762.09;;;18.01;51.67
13124;BME280;6627;50.920;12.050;2023-03-25T01:58:08;97663.88;;;17.69;50.97
13124;BME280;6627;50.920;12.050;2023-03-25T02:00:38;97762.47;;;18.36;51.17
13124;BME280;6627;50.920;12.050;2023-03-25T02:03:06;97731.00;;;18.23;50.69
13124;BME280;6627;50.920;12.050;2023-03-25T02:05:41;97742.16;;;18.37;50.47
13124;BME280;6627;50.920;12.050;2023-03-25T02:08:11;97734.13;;;18.22;50.72
13124;BME280;6627;50.920;12.050;2023-03-25T02:10:44;97736.72;;;18.45;49.94
13124;BME280;6627;50.920;12.050;2023-03-25T02:13:12;97865.38;;;19.46;49.04
13124;BME280;6627;50.920;12.050;2023-03-25T02:16:09;97759.78;;;19.32;47.46
13124;BME280;6627;50.920;12.050;2023-03-25T02:18:53;97699.06;;;18.41;49.21
13124;BME280;6627;50.920;12.050;2023-03-25T02:22:16;97842.78;;;19.63;47.69
13124;BME280;6627;50.920;12.050;2023-03-25T02:25:27;97732.59;;;19.13;48.08
13124;BME280;6627;50.920;12.050;2023-03-25T02:28:13;97704.00;;;19.18;47.09
13124;BME280;6627;50.920;12.050;2023-03-25T02:31:36;97817.91;;;20.11;46.17
13124;BME280;6627;50.920;12.050;2023-03-25T02:34:38;97726.53;;;19.48;46.98
13124;BME280;6627;50.920;12.050;2023-03-25T02:37:33;97666.63;;;18.95;47.59
13124;BME280;6627;50.920;12.050;2023-03-25T02:40:08;97722.66;;;19.60;46.68
13124;BME280;6627;50.920;12.050;2023-03-25T02:42:47;97670.63;;;19.08;47.00
13124;BME280;6627;50.920;12.050;2023-03-25T02:45:24;97719.41;;;19.36;47.21
13124;BME280;6627;50.920;12.050;2023-03-25T02:48:01;97632.31;;;18.64;48.16
13124;BME280;6627;50.920;12.050;2023-03-25T02:50:37;97747.81;;;19.65;46.69
13124;BME280;6627;50.920;12.050;2023-03-25T02:53:12;97694.19;;;19.13;47.42
13124;BME280;6627;50.920;12.050;2023-03-25T02:55:44;97736.81;;;19.62;46.30
13124;BME280;6627;50.920;12.050;2023-03-25T02:58:16;97673.38;;;19.12;46.78
13124;BME280;6627;50.920;12.050;2023-03-25T03:00:48;97733.28;;;19.65;45.90
13124;BME280;6627;50.920;12.050;2023-03-25T03:03:17;97738.31;;;19.49;46.60
13124;BME280;6627;50.920;12.050;2023-03-25T03:05:49;97687.44;;;19.00;47.87
13124;BME280;6627;50.920;12.050;2023-03-25T03:08:34;97639.66;;;18.53;48.63
13124;BME280;6627;50.920;12.050;2023-03-25T03:11:14;97764.41;;;19.90;46.57
13124;BME280;6627;50.920;12.050;2023-03-25T03:13:59;97796.63;;;20.01;46.62
13124;BME280;6627;50.920;12.050;2023-03-25T03:16:42;97688.00;;;19.30;46.63
13124;BME280;6627;50.920;12.050;2023-03-25T03:19:31;97711.91;;;19.26;47.38
13124;BME280;6627;50.920;12.050;2023-03-25T03:22:19;97744.31;;;19.72;46.64
13124;BME280;6627;50.920;12.050;2023-03-25T03:24:59;97675.44;;;19.29;46.46
13124;BME280;6627;50.920;12.050;2023-03-25T03:27:32;97693.84;;;19.25;46.92
13124;BME280;6627;50.920;12.050;2023-03-25T03:30:08;97664.97;;;18.83;47.66
13124;BME280;6627;50.920;12.050;2023-03-25T03:32:43;97638.78;;;18.45;48.79
13124;BME280;6627;50.920;12.050;2023-03-25T03:35:19;97647.53;;;18.61;48.27
13124;BME280;6627;50.920;12.050;2023-03-25T03:37:54;97508.03;;;17.50;49.14
13124;BME280;6627;50.920;12.050;2023-03-25T03:40:26;97492.91;;;17.22;49.25
13124;BME280;6627;50.920;12.050;2023-03-25T03:42:59;97575.38;;;17.61;49.45
13124;BME280;6627;50.920;12.050;2023-03-25T03:45:34;97609.44;;;18.01;49.17
13124;BME280;6627;50.920;12.050;2023-03-25T03:48:09;97697.78;;;18.69;48.48
13124;BME280;6627;50.920;12.050;2023-03-25T03:50:42;97643.38;;;18.30;48.26
13124;BME280;6627;50.920;12.050;2023-03-25T03:53:19;97604.91;;;17.75;49.35
13124;BME280;6627;50.920;12.050;2023-03-25T03:55:53;97670.88;;;18.41;48.79
13124;BME280;6627;50.920;12.050;2023-03-25T03:58:33;97626.81;;;18.16;48.50
13124;BME280;6627;50.920;12.050;2023-03-25T04:01:06;97611.06;;;18.02;48.67
13124;BME280;6627;50.920;12.050;2023-03-25T04:03:41;97730.16;;;19.01;47.72
13124;BME280;6627;50.920;12.050;2023-03-25T04:06:18;97628.53;;;18.35;47.55
13124;BME280;6627;50.920;12.050;2023-03-25T04:08:54;97751.13;;;19.27;46.79
13124;BME280;6627;50.920;12.050;2023-03-25T04:11:29;97663.25;;;18.64;46.69
13124;BME280;6627;50.920;12.050;2023-03-25T04:14:02;97723.13;;;19.07;46.40
13124;BME280;6627;50.920;12.050;2023-03-25T04:16:31;97658.56;;;18.65;46.48
13124;BME280;6627;50.920;12.050;2023-03-25T04:18:58;97627.50;;;18.54;46.18
13124;BME280;6627;50.920;12.050;2023-03-25T04:21:25;97634.84;;;18.39;46.25
13124;BME280;6627;50.920;12.050;2023-03-25T04:23:54;97525.50;;;17.75;46.49
13124;BME280;6627;50.920;12.050;2023-03-25T04:26:27;97573.50;;;18.10;45.96
13124;BME280;6627;50.920;12.050;2023-03-25T04:29:00;97531.91;;;17.94;45.33
13124;BME280;6627;50.920;12.050;2023-03-25T04:31:29;97475.28;;;17.64;44.85
13124;BME280;6627;50.920;12.050;2023-03-25T04:33:58;97521.72;;;17.90;44.47
13124;BME280;6627;50.920;12.050;2023-03-25T04:36:25;97538.44;;;18.30;43.47
13124;BME280;6627;50.920;12.050;2023-03-25T04:38:54;97572.53;;;18.36;43.59
13124;BME280;6627;50.920;12.050;2023-03-25T04:41:22;97477.13;;;17.97;43.71
13124;BME280;6627;50.920;12.050;2023-03-25T04:43:49;97462.00;;;17.66;44.13
13124;BME280;6627;50.920;12.050;2023-03-25T04:46:18;97455.09;;;17.76;43.45
13124;BME280;6627;50.920;12.050;2023-03-25T04:48:46;97434.78;;;17.39;44.27
13124;BME280;6627;50.920;12.050;2023-03-25T04:51:14;97474.69;;;17.81;43.66
13124;BME280;6627;50.920;12.050;2023-03-25T04:53:41;97437.41;;;17.25;44.68
13124;BME280;6627;50.920;12.050;2023-03-25T04:56:13;97552.47;;;18.21;43.65
13124;BME280;6627;50.920;12.050;2023-03-25T04:58:42;97482.84;;;17.74;43.71
13124;BME280;6627;50.920;12.050;2023-03-25T05:01:22;97546.34;;;18.38;42.59
13124;BME280;6627;50.920;12.050;2023-03-25T05:03:57;97532.28;;;18.44;42.15
13124;BME280;6627;50.920;12.050;2023-03-25T05:06:31;97317.50;;;16.90;43.19
13124;BME280;6627;50.920;12.050;2023-03-25T05:08:59;97485.38;;;18.01;43.06
13124;BME280;6627;50.920;12.050;2023-03-25T05:11:29;97382.56;;;17.11;44.43
13124;BME280;6627;50.920;12.050;2023-03-25T05:13:57;97456.69;;;17.80;43.20
13124;BME280;6627;50.920;12.050;2023-03-25T05:16:26;97405.56;;;17.51;43.22
13124;BME280;6627;50.920;12.050;2023-03-25T05:18:53;97405.97;;;17.08;44.74
13124;BME280;6627;50.920;12.050;2023-03-25T05:21:20;97513.59;;;18.05;42.92
13124;BME280;6627;50.920;12.050;2023-03-25T05:23:48;97557.31;;;18.38;42.87
13124;BME280;6627;50.920;12.050;2023-03-25T05:26:16;97404.66;;;17.32;43.56
13124;BME280;6627;50.920;12.050;2023-03-25T05:28:44;97334.53;;;16.73;44.27
13124;BME280;6627;50.920;12.050;2023-03-25T05:31:11;97474.09;;;17.58;43.67
13124;BME280;6627;50.920;12.050;2023-03-25T05:33:40;97418.75;;;17.38;43.61
13124;BME280;6627;50.920;12.050;2023-03-25T05:36:09;97612.38;;;18.71;42.57
13124;BME280;6627;50.920;12.050;2023-03-25T05:38:37;97510.81;;;18.01;43.00
13124;BME280;6627;50.920;12.050;2023-03-25T05:41:07;97503.03;;;18.03;42.59
13124;BME280;6627;50.920;12.050;2023-03-25T05:43:36;97544.66;;;18.23;42.39
13124;BME280;6627;50.920;12.050;2023-03-25T05:46:04;97601.34;;;18.67;42.04
13124;BME280;6627;50.920;12.050;2023-03-25T05:48:31;97473.19;;;17.91;42.41
13124;BME280;6627;50.920;12.050;2023-03-25T05:51:07;97306.16;;;16.51;44.66
13124;BME280;6627;50.920;12.050;2023-03-25T05:53:38;97483.13;;;17.62;44.00
13124;BME280;6627;50.920;12.050;2023-03-25T05:56:07;97441.94;;;17.51;43.76
13124;BME280;6627;50.920;12.050;2023-03-25T05:58:34;97585.56;;;18.50;42.92
13124;BME280;6627;50.920;12.050;2023-03-25T06:01:01;97504.50;;;17.90;43.40
13124;BME280;6627;50.920;12.050;2023-03-25T06:03:29;97507.63;;;17.92;43.24
13124;BME280;6627;50.920;12.050;2023-03-25T06:05:59;97476.00;;;17.54;44.06
13124;BME280;6627;50.920;12.050;2023-03-25T06:08:28;97572.88;;;18.27;43.09
13124;BME280;6627;50.920;12.050;2023-03-25T06:10:56;97637.88;;;18.75;42.82
13124;BME280;6627;50.920;12.050;2023-03-25T06:13:26;97475.22;;;17.57;43.93
13124;BME280;6627;50.920;12.050;2023-03-25T06:15:53;97537.25;;;17.79;44.58
13124;BME280;6627;50.920;12.050;2023-03-25T06:18:22;97522.41;;;17.80;44.36
13124;BME280;6627;50.920;12.050;2023-03-25T06:20:51;97553.69;;;17.79;44.84
13124;BME280;6627;50.920;12.050;2023-03-25T06:23:19;97477.38;;;17.33;45.06
13124;BME280;6627;50.920;12.050;2023-03-25T06:25:49;97487.44;;;17.26;45.76
13124;BME280;6627;50.920;12.050;2023-03-25T06:28:17;97559.94;;;17.76;45.25
13124;BME280;6627;50.920;12.050;2023-03-25T06:30:45;97615.16;;;18.26;44.20
13124;BME280;6627;50.920;12.050;2023-03-25T06:33:13;97459.06;;;17.04;45.59
13124;BME280;6627;50.920;12.050;2023-03-25T06:35:41;97684.41;;;18.64;44.40
13124;BME280;6627;50.920;12.050;2023-03-25T06:38:11;97619.25;;;18.02;45.44
13124;BME280;6627;50.920;12.050;2023-03-25T06:40:38;97587.81;;;17.85;45.20
13124;BME280;6627;50.920;12.050;2023-03-25T06:43:07;97593.50;;;17.73;45.69
13124;BME280;6627;50.920;12.050;2023-03-25T06:45:34;97588.25;;;17.57;46.51
13124;BME280;6627;50.920;12.050;2023-03-25T06:48:02;97659.75;;;18.23;45.44
13124;BME280;6627;50.920;12.050;2023-03-25T06:50:30;97652.31;;;18.20;45.58
13124;BME280;6627;50.920;12.050;2023-03-25T06:52:58;97584.53;;;17.35;47.30
13124;BME280;6627;50.920;12.050;2023-03-25T06:55:25;97672.25;;;18.17;46.27
13124;BME280;6627;50.920;12.050;2023-03-25T06:57:54;97678.66;;;18.35;45.71
13124;BME280;6627;50.920;12.050;2023-03-25T07:00:23;97650.06;;;17.92;46.43
13124;BME280;6627;50.920;12.050;2023-03-25T07:02:51;97580.41;;;17.19;47.47
13124;BME280;6627;50.920;12.050;2023-03-25T07:05:19;97607.38;;;17.20;48.43
13124;BME280;6627;50.920;12.050;2023-03-25T07:07:47;97655.50;;;17.55;48.29
13124;BME280;6627;50.920;12.050;2023-03-25T07:10:14;97796.25;;;18.44;47.76
13124;BME280;6627;50.920;12.050;2023-03-25T07:12:41;97735.16;;;18.06;47.84
13124;BME280;6627;50.920;12.050;2023-03-25T07:15:09;97676.91;;;17.46;48.89
13124;BME280;6627;50.920;12.050;2023-03-25T07:17:37;97692.59;;;17.49;49.24
13124;BME280;6627;50.920;12.050;2023-03-25T07:20:06;97756.84;;;18.22;47.55
13124;BME280;6627;50.920;12.050;2023-03-25T07:22:34;97727.31;;;18.05;47.88
13124;BME280;6627;50.920;12.050;2023-03-25T07:25:01;97742.34;;;17.84;48.96
13124;BME280;6627;50.920;12.050;2023-03-25T07:27:29;97763.50;;;18.21;48.04
13124;BME280;6627;50.920;12.050;2023-03-25T07:29:56;97663.47;;;17.33;49.15
13124;BME280;6627;50.920;12.050;2023-03-25T07:32:23;97806.41;;;18.44;48.39
13124;BME280;6627;50.920;12.050;2023-03-25T07:34:52;97761.44;;;18.11;48.37
13124;BME280;6627;50.920;12.050;2023-03-25T07:37:19;97646.25;;;17.03;50.02
13124;BME280;6627;50.920;12.050;2023-03-25T07:39:46;97759.53;;;17.81;49.62
13124;BME280;6627;50.920;12.050;2023-03-25T07:42:14;97869.81;;;18.72;48.52
13124;BME280;6627;50.920;12.050;2023-03-25T07:44:42;97868.47;;;18.93;47.52
13124;BME280;6627;50.920;12.050;2023-03-25T07:47:09;97849.81;;;19.09;46.79
13124;BME280;6627;50.920;12.050;2023-03-25T07:49:36;97829.31;;;18.62;47.78
13124;BME280;6627;50.920;12.050;2023-03-25T07:52:07;97822.63;;;18.56;47.97
13124;BME280;6627;50.920;12.050;2023-03-25T07:54:34;97808.53;;;18.24;49.00
13124;BME280;6627;50.920;12.050;2023-03-25T07:57:03;97882.31;;;19.07;47.56
13124;BME280;6627;50.920;12.050;2023-03-25T07:59:40;97888.41;;;18.89;48.31
13124;BME280;6627;50.920;12.050;2023-03-25T08:02:11;97887.91;;;19.18;47.57
13124;BME280;6627;50.920;12.050;2023-03-25T08:04:38;97814.56;;;18.36;48.62
13124;BME280;6627;50.920;12.050;2023-03-25T08:07:07;97826.84;;;18.50;48.50
13124;BME280;6627;50.920;12.050;2023-03-25T08:09:34;97878.75;;;19.03;47.85
13124;BME280;6627;50.920;12.050;2023-03-25T08:12:02;97867.50;;;18.74;48.10
13124;BME280;6627;50.920;12.050;2023-03-25T08:14:29;97950.91;;;19.48;47.46
13124;BME280;6627;50.920;12.050;2023-03-25T08:16:56;97892.22;;;19.19;47.47
13124;BME280;6627;50.920;12.050;2023-03-25T08:19:24;97909.84;;;19.14;47.88
13124;BME280;6627;50.920;12.050;2023-03-25T08:21:51;97907.53;;;19.20;47.53
13124;BME280;6627;50.920;12.050;2023-03-25T08:24:20;97823.63;;;18.40;48.33
13124;BME280;6627;50.920;12.050;2023-03-25T08:26:50;97968.66;;;20.02;46.20
13124;BME280;6627;50.920;12.050;2023-03-25T08:29:18;97804.50;;;18.48;47.93
13124;BME280;6627;50.920;12.050;2023-03-25T08:31:46;97978.78;;;19.90;47.43
13124;BME280;6627;50.920;12.050;2023-03-25T08:34:19;97738.69;;;18.07;48.77
13124;BME280;6627;50.920;12.050;2023-03-25T08:36:46;97902.00;;;19.12;48.62
13124;BME280;6627;50.920;12.050;2023-03-25T08:39:14;97857.88;;;18.95;48.18
13124;BME280;6627;50.920;12.050;2023-03-25T08:41:43;97748.56;;;17.81;49.68
13124;BME280;6627;50.920;12.050;2023-03-25T08:44:11;97717.63;;;17.51;49.50
13124;BME280;6627;50.920;12.050;2023-03-25T08:46:38;97774.97;;;17.97;49.40
13124;BME280;6627;50.920;12.050;2023-03-25T08:49:06;97744.09;;;18.00;48.79
13124;BME280;6627;50.920;12.050;2023-03-25T08:51:33;97815.88;;;18.50;48.13
13124;BME280;6627;50.920;12.050;2023-03-25T08:54:00;97788.03;;;18.44;47.52
13124;BME280;6627;50.920;12.050;2023-03-25T08:56:29;97890.31;;;19.23;47.15
13124;BME280;6627;50.920;12.050;2023-03-25T08:58:58;97711.88;;;17.89;47.50
13124;BME280;6627;50.920;12.050;2023-03-25T09:01:25;97723.13;;;18.18;46.38
13124;BME280;6627;50.920;12.050;2023-03-25T09:03:52;97648.44;;;17.87;45.23
13124;BME280;6627;50.920;12.050;2023-03-25T09:06:20;97742.88;;;18.34;45.60
13124;BME280;6627;50.920;12.050;2023-03-25T09:08:48;97645.31;;;17.85;45.66
13124;BME280;6627;50.920;12.050;2023-03-25T09:11:15;97681.50;;;18.02;46.16
13124;BME280;6627;50.920;12.050;2023-03-25T09:13:42;97630.03;;;17.51;46.97
13124;BME280;6627;50.920;12.050;2023-03-25T09:16:11;97603.34;;;17.44;46.11
13124;BME280;6627;50.920;12.050;2023-03-25T09:18:38;97695.59;;;18.04;46.16
13124;BME280;6627;50.920;12.050;2023-03-25T09:21:06;97580.47;;;17.22;46.19
13124;BME280;6627;50.920;12.050;2023-03-25T09:23:33;97666.50;;;17.88;45.72
13124;BME280;6627;50.920;12.050;2023-03-25T09:26:01;97637.25;;;17.66;45.66
13124;BME280;6627;50.920;12.050;2023-03-25T09:28:30;97744.31;;;18.21;45.83
13124;BME280;6627;50.920;12.050;2023-03-25T09:30:57;97686.53;;;18.00;45.36
13124;BME280;6627;50.920;12.050;2023-03-25T09:33:27;97667.69;;;17.61;46.19
13124;BME280;6627;50.920;12.050;2023-03-25T09:35:54;97624.78;;;17.05;47.53
13124;BME280;6627;50.920;12.050;2023-03-25T09:38:21;97649.16;;;17.17;47.67
13124;BME280;6627;50.920;12.050;2023-03-25T09:40:49;97659.47;;;17.27;48.07
13124;BME280;6627;50.920;12.050;2023-03-25T09:43:32;97632.81;;;17.21;48.05
13124;BME280;6627;50.920;12.050;2023-03-25T09:46:05;97643.09;;;17.31;47.62
13124;BME280;6627;50.920;12.050;2023-03-25T09:48:37;97636.94;;;17.37;47.13
13124;BME280;6627;50.920;12.050;2023-03-25T09:51:14;97801.16;;;18.65;45.98
13124;BME280;6627;50.920;12.050;2023-03-25T09:53:50;97948.88;;;19.82;44.66
13124;BME280;6627;50.920;12.050;2023-03-25T09:56:25;97743.28;;;18.36;45.84
13124;BME280;6627;50.920;12.050;2023-03-25T09:58:59;97804.66;;;19.03;44.35
13124;BME280;6627;50.920;12.050;2023-03-25T10:01:36;97761.44;;;18.93;43.45
13124;BME280;6627;50.920;12.050;2023-03-25T10:04:32;97609.28;;;17.83;44.09
13124;BME280;6627;50.920;12.050;2023-03-25T10:07:14;97822.22;;;19.46;43.16
13124;BME280;6627;50.920;12.050;2023-03-25T10:10:02;97727.13;;;19.13;42.08
13124;BME280;6627;50.920;12.050;2023-03-25T10:12:40;97797.81;;;20.00;40.82
13124;BME280;6627;50.920;12.050;2023-03-25T10:15:20;97640.09;;;19.17;41.30
13124;BME280;6627;50.920;12.050;2023-03-25T10:18:15;97671.97;;;19.39;41.19
13124;BME280;6627;50.920;12.050;2023-03-25T10:20:58;97631.41;;;19.11;41.13
13124;BME280;6627;50.920;12.050;2023-03-25T10:23:36;97661.41;;;19.49;40.48
13124;BME280;6627;50.920;12.050;2023-03-25T10:26:09;97685.72;;;19.47;40.82
13124;BME280;6627;50.920;12.050;2023-03-25T10:28:43;97657.59;;;19.71;39.52
13124;BME280;6627;50.920;12.050;2023-03-25T10:31:17;97615.19;;;19.65;39.42
13124;BME280;6627;50.920;12.050;2023-03-25T10:33:51;97648.22;;;19.94;39.27
13124;BME280;6627;50.920;12.050;2023-03-25T10:36:31;97542.13;;;19.46;38.46
13124;BME280;6627;50.920;12.050;2023-03-25T10:39:01;97543.63;;;19.19;39.45
13124;BME280;6627;50.920;12.050;2023-03-25T10:41:35;97638.03;;;20.08;38.83
13124;BME280;6627;50.920;12.050;2023-03-25T10:44:07;97769.38;;;20.86;38.46
13124;BME280;6627;50.920;12.050;2023-03-25T10:46:42;97626.28;;;20.29;38.02
13124;BME280;6627;50.920;12.050;2023-03-25T10:49:16;97559.09;;;19.80;38.79
13124;BME280;6627;50.920;12.050;2023-03-25T10:51:47;97781.16;;;21.26;38.09
13124;BME280;6627;50.920;12.050;2023-03-25T10:54:17;97796.88;;;21.51;37.87
13124;BME280;6627;50.920;12.050;2023-03-25T10:56:48;97618.81;;;20.26;38.92
13124;BME280;6627;50.920;12.050;2023-03-25T10:59:22;97663.25;;;20.60;38.21
13124;BME280;6627;50.920;12.050;2023-03-25T11:01:54;97730.44;;;20.99;38.20
13124;BME280;6627;50.920;12.050;2023-03-25T11:04:31;97730.78;;;21.29;37.66
13124;BME280;6627;50.920;12.050;2023-03-25T11:07:02;97524.94;;;19.81;38.92
13124;BME280;6627;50.920;12.050;2023-03-25T11:09:33;97595.28;;;20.50;38.26
13124;BME280;6627;50.920;12.050;2023-03-25T11:12:05;97553.22;;;20.28;37.76
13124;BME280;6627;50.920;12.050;2023-03-25T11:14:37;97719.00;;;21.32;37.40
13124;BME280;6627;50.920;12.050;2023-03-25T11:17:13;97641.19;;;20.92;37.38
13124;BME280;6627;50.920;12.050;2023-03-25T11:19:51;97446.44;;;19.73;37.74
13124;BME280;6627;50.920;12.050;2023-03-25T11:22:25;97530.78;;;20.44;36.81
13124;BME280;6627;50.920;12.050;2023-03-25T11:24:59;97699.31;;;21.41;36.55
13124;BME280;6627;50.920;12.050;2023-03-25T11:27:29;97641.13;;;21.14;36.28
13124;BME280;6627;50.920;12.050;2023-03-25T11:30:03;97586.91;;;20.97;36.38
13124;BME280;6627;50.920;12.050;2023-03-25T11:32:33;97568.06;;;20.95;36.14
13124;BME280;6627;50.920;12.050;2023-03-25T11:35:15;97311.47;;;19.42;36.73
13124;BME280;6627;50.920;12.050;2023-03-25T11:37:47;97413.41;;;20.16;36.15
13124;BME280;6627;50.920;12.050;2023-03-25T11:40:17;97503.63;;;20.78;35.74
13124;BME280;6627;50.920;12.050;2023-03-25T11:42:51;97100.69;;;18.41;36.91
13124;BME280;6627;50.920;12.050;2023-03-25T11:45:21;97502.44;;;20.79;35.83
13124;BME280;6627;50.920;12.050;2023-03-25T11:47:50;97343.63;;;19.88;36.02
13124;BME280;6627;50.920;12.050;2023-03-25T11:50:22;97456.50;;;20.62;35.54
13124;BME280;6627;50.920;12.050;2023-03-25T11:52:56;97534.25;;;20.95;35.96
13124;BME280;6627;50.920;12.050;2023-03-25T11:55:28;97447.13;;;20.49;36.18
13124;BME280;6627;50.920;12.050;2023-03-25T11:57:59;97427.56;;;20.14;36.77
13124;BME280;6627;50.920;12.050;2023-03-25T12:00:36;97459.75;;;20.14;37.74
13124;BME280;6627;50.920;12.050;2023-03-25T12:03:15;97499.66;;;20.86;36.83
13124;BME280;6627;50.920;12.050;2023-03-25T12:05:57;97489.44;;;20.83;36.43
13124;BME280;6627;50.920;12.050;2023-03-25T12:08:40;97530.31;;;20.92;37.03
13124;BME280;6627;50.920;12.050;2023-03-25T12:11:15;97446.31;;;20.59;36.68
13124;BME280;6627;50.920;12.050;2023-03-25T12:14:13;97377.25;;;20.25;36.71
13124;BME280;6627;50.920;12.050;2023-03-25T12:16:51;97522.41;;;21.01;36.93
13124;BME280;6627;50.920;12.050;2023-03-25T12:19:33;97540.81;;;21.19;36.72
13124;BME280;6627;50.920;12.050;2023-03-25T12:22:19;97418.06;;;20.48;36.90
13124;BME280;6627;50.920;12.050;2023-03-25T12:25:15;97435.50;;;21.00;35.51
13124;BME280;6627;50.920;12.050;2023-03-25T12:28:03;97492.31;;;21.42;34.70
13124;BME280;6627;50.920;12.050;2023-03-25T12:30:50;97472.72;;;21.26;35.15
13124;BME280;6627;50.920;12.050;2023-03-25T12:33:44;97542.59;;;21.61;35.21
13124;BME280;6627;50.920;12.050;2023-03-25T12:36:28;97459.34;;;21.32;35.35
13124;BME280;6627;50.920;12.050;2023-03-25T12:39:25;97484.75;;;21.54;35.10
13124;BME280;6627;50.920;12.050;2023-03-25T12:42:07;97423.16;;;21.26;35.08
13124;BME280;6627;50.920;12.050;2023-03-25T12:44:56;97308.59;;;20.87;34.73
13124;BME280;6627;50.920;12.050;2023-03-25T12:47:33;97521.03;;;22.01;34.47
13124;BME280;6627;50.920;12.050;2023-03-25T12:50:31;97521.28;;;22.17;34.67
13124;BME280;6627;50.920;12.050;2023-03-25T12:53:22;97349.44;;;20.89;35.48
13124;BME280;6627;50.920;12.050;2023-03-25T12:56:08;97007.56;;;17.95;40.80
13124;BME280;6627;50.920;12.050;2023-03-25T12:59:11;96969.50;;;16.20;45.52
13124;BME280;6627;50.920;12.050;2023-03-25T13:01:52;97299.97;;;16.91;47.48
13124;BME280;6627;50.920;12.050;2023-03-25T13:04:41;97313.19;;;16.48;48.11
13124;BME280;6627;50.920;12.050;2023-03-25T13:07:13;97221.59;;;15.57;48.97
13124;BME280;6627;50.920;12.050;2023-03-25T13:09:53;97471.84;;;16.32;50.50
13124;BME280;6627;50.920;12.050;2023-03-25T13:12:31;97496.44;;;16.32;49.78
13124;BME280;6627;50.920;12.050;2023-03-25T13:15:12;97499.69;;;16.42;48.81
13124;BME280;6627;50.920;12.050;2023-03-25T13:17:46;97495.53;;;16.21;48.54
13124;BME280;6627;50.920;12.050;2023-03-25T13:20:18;97590.41;;;16.77;48.92
13124;BME280;6627;50.920;12.050;2023-03-25T13:22:50;97544.25;;;16.46;48.83
13124;BME280;6627;50.920;12.050;2023-03-25T13:25:25;97662.66;;;17.33;47.89
13124;BME280;6627;50.920;12.050;2023-03-25T13:27:54;97600.44;;;16.96;48.34
13124;BME280;6627;50.920;12.050;2023-03-25T13:30:32;97633.78;;;17.35;47.44